Time;durP1;ratioP1;P1;durP2;ratioP2;P2;SDS_P1;SDS_P2;PMS_P1;PMS_P2;Temp;Humidity;BMP_temperature;BMP_pressure;BME280_temperature;BME280_humidity;BME280_pressure;Samples;Min_cycle;Max_cycle;Signal;HPM_P1;HPM_P2
2022/05/15 00:02:44;;;;;;;18.38;4.97;;;8.10;99.90;;;;;;5030407;28;20102;-83
2022/05/15 00:05:11;;;;;;;17.38;5.55;;;7.90;99.90;;;;;;5029729;28;20095;-84
2022/05/15 00:07:37;;;;;;;26.75;6.68;;;7.90;99.90;;;;;;5014147;28;20406;-84
2022/05/15 00:10:05;;;;;;;24.42;6.18;;;7.80;99.90;;;;;;5013795;28;20045;-84
2022/05/15 00:12:31;;;;;;;24.90;5.85;;;7.80;99.90;;;;;;5010908;28;20045;-84
2022/05/15 00:14:56;;;;;;;25.42;6.18;;;7.80;99.90;;;;;;5029942;28;20037;-84
2022/05/15 00:17:22;;;;;;;19.58;6.13;;;7.90;99.90;;;;;;5013654;28;20107;-85
2022/05/15 00:19:48;;;;;;;27.48;6.97;;;7.90;99.90;;;;;;5014467;28;20049;-85
2022/05/15 00:22:14;;;;;;;20.00;6.50;;;7.90;99.90;;;;;;5013621;28;20111;-84
2022/05/15 00:24:40;;;;;;;21.85;5.72;;;7.90;99.90;;;;;;5011581;28;20038;-83
2022/05/15 00:27:07;;;;;;;20.75;5.78;;;7.90;99.90;;;;;;5014054;28;20475;-85
2022/05/15 00:29:33;;;;;;;20.65;5.75;;;7.80;99.90;;;;;;5012450;28;20483;-82
2022/05/15 00:31:59;;;;;;;24.33;6.03;;;7.80;99.90;;;;;;5014415;28;20045;-83
2022/05/15 00:34:25;;;;;;;20.80;6.05;;;7.80;99.90;;;;;;5008653;28;20442;-87
2022/05/15 00:36:51;;;;;;;18.55;5.93;;;7.80;99.90;;;;;;5010970;28;20395;-84
2022/05/15 00:39:17;;;;;;;19.75;6.03;;;7.80;99.90;;;;;;5027665;28;20517;-84
2022/05/15 00:41:43;;;;;;;25.83;6.47;;;7.70;99.90;;;;;;5023953;28;20402;-85
2022/05/15 00:44:09;;;;;;;21.52;5.78;;;7.70;99.90;;;;;;5012302;28;20076;-86
2022/05/15 00:46:38;;;;;;;24.10;6.32;;;7.60;99.90;;;;;;5026884;28;20045;-85
2022/05/15 00:49:10;;;;;;;24.45;6.60;;;7.60;99.90;;;;;;5017492;28;20057;-85
2022/05/15 00:51:42;;;;;;;28.42;7.95;;;7.60;99.90;;;;;;5002685;28;20054;-85
2022/05/15 00:54:24;;;;;;;27.55;7.18;;;7.80;99.90;;;;;;5006325;28;20047;-84
2022/05/15 00:56:57;;;;;;;25.45;6.03;;;7.40;99.90;;;;;;5021111;28;20050;-84
2022/05/15 00:59:26;;;;;;;21.92;5.10;;;7.40;99.90;;;;;;5011491;28;20111;-86
2022/05/15 01:01:52;;;;;;;22.02;6.03;;;7.30;99.90;;;;;;5029171;28;20092;-85
2022/05/15 01:04:18;;;;;;;22.40;6.03;;;7.40;99.90;;;;;;5012855;28;20049;-84
2022/05/15 01:06:44;;;;;;;20.30;6.22;;;7.30;99.90;;;;;;5014401;28;20057;-84
2022/05/15 01:09:13;;;;;;;23.83;5.82;;;7.50;99.90;;;;;;5014011;28;20053;-86
2022/05/15 01:11:39;;;;;;;21.05;5.97;;;7.20;99.90;;;;;;5014105;28;20140;-85
2022/05/15 01:14:09;;;;;;;23.60;6.60;;;7.10;99.90;;;;;;5027775;28;20053;-86
2022/05/15 01:16:36;;;;;;;25.65;5.97;;;7.10;99.90;;;;;;4993877;28;20056;-85
2022/05/15 01:19:03;;;;;;;21.50;5.82;;;7.10;99.90;;;;;;4993711;28;20140;-85
2022/05/15 01:21:33;;;;;;;20.45;6.22;;;7.10;99.90;;;;;;5001347;28;20103;-83
2022/05/15 01:24:00;;;;;;;20.98;6.20;;;7.20;99.90;;;;;;5038918;28;20406;-84
2022/05/15 01:26:27;;;;;;;20.13;5.47;;;7.30;99.90;;;;;;5049796;28;20057;-84
2022/05/15 01:28:53;;;;;;;19.40;5.47;;;7.30;99.90;;;;;;5033657;28;20520;-84
2022/05/15 01:31:20;;;;;;;22.90;6.38;;;7.20;99.90;;;;;;5012367;28;20453;-84
2022/05/15 01:33:50;;;;;;;21.77;5.80;;;7.20;99.90;;;;;;5009384;28;20503;-84
2022/05/15 01:36:19;;;;;;;20.35;5.70;;;7.20;99.90;;;;;;5009833;28;20053;-85
2022/05/15 01:38:45;;;;;;;21.65;5.10;;;7.30;99.90;;;;;;5010188;28;20058;-84
2022/05/15 01:41:12;;;;;;;16.63;4.95;;;7.20;99.90;;;;;;4998558;28;20040;-85
2022/05/15 01:43:40;;;;;;;24.50;6.35;;;7.20;99.90;;;;;;5016591;28;20049;-84
2022/05/15 01:46:06;;;;;;;18.15;6.70;;;7.20;99.90;;;;;;5024145;28;20037;-85
2022/05/15 01:48:32;;;;;;;23.50;5.82;;;7.10;99.90;;;;;;4980515;28;20144;-84
2022/05/15 01:50:58;;;;;;;23.58;6.03;;;7.00;99.90;;;;;;4996622;28;20136;-83
2022/05/15 01:53:24;;;;;;;19.17;5.70;;;6.90;99.90;;;;;;5012743;28;20046;-84
2022/05/15 01:55:50;;;;;;;26.85;6.65;;;6.80;99.90;;;;;;5013481;28;20128;-84
2022/05/15 01:58:16;;;;;;;24.05;5.93;;;6.80;99.90;;;;;;5013916;28;20080;-84
2022/05/15 02:00:41;;;;;;;20.77;6.00;;;6.90;99.90;;;;;;5010846;28;20057;-84
2022/05/15 02:03:07;;;;;;;15.57;5.70;;;7.00;99.90;;;;;;4976998;28;20048;-84
2022/05/15 02:05:33;;;;;;;20.02;6.72;;;6.70;99.90;;;;;;4992903;28;20520;-83
2022/05/15 02:07:58;;;;;;;16.80;5.57;;;6.70;99.90;;;;;;4993610;28;20077;-84
2022/05/15 02:10:24;;;;;;;21.52;5.57;;;6.70;99.90;;;;;;4961114;28;20556;-84
2022/05/15 02:12:50;;;;;;;22.80;6.30;;;6.60;99.90;;;;;;4996714;28;20046;-84
2022/05/15 02:15:16;;;;;;;20.63;7.05;;;6.50;99.90;;;;;;4992952;28;20049;-84
2022/05/15 02:17:42;;;;;;;20.92;5.93;;;6.50;99.90;;;;;;4999296;28;20434;-83
2022/05/15 02:20:10;;;;;;;33.92;8.70;;;6.40;99.90;;;;;;5006995;28;20047;-84
2022/05/15 02:22:38;;;;;;;21.92;6.70;;;6.40;99.90;;;;;;5029706;28;20053;-84
2022/05/15 02:25:06;;;;;;;18.23;6.75;;;6.50;99.90;;;;;;5018569;28;20048;-84
2022/05/15 02:27:32;;;;;;;25.83;7.50;;;6.50;99.90;;;;;;5042921;28;20099;-85
2022/05/15 02:29:59;;;;;;;30.20;8.27;;;6.50;99.90;;;;;;5016464;28;20049;-83
2022/05/15 02:32:24;;;;;;;28.38;8.52;;;6.60;99.90;;;;;;5000763;28;20045;-83
2022/05/15 02:34:50;;;;;;;24.35;7.50;;;6.50;99.90;;;;;;5032919;28;20045;-83
2022/05/15 02:37:16;;;;;;;27.38;9.63;;;6.50;99.90;;;;;;4996826;28;20077;-84
2022/05/15 02:39:42;;;;;;;24.77;7.63;;;6.40;99.90;;;;;;5016228;28;20034;-84
2022/05/15 02:42:09;;;;;;;29.67;8.75;;;6.40;99.90;;;;;;5016214;28;20418;-83
2022/05/15 02:44:35;;;;;;;24.63;7.65;;;6.30;99.90;;;;;;5015695;28;20411;-83
2022/05/15 02:47:01;;;;;;;22.83;8.63;;;6.40;99.90;;;;;;5015915;28;20053;-85
2022/05/15 02:52:10;;;;;;;23.95;8.70;;;6.40;99.90;;;;;;5018658;28;20082;-83
2022/05/15 02:54:36;;;;;;;24.60;7.65;;;6.40;99.90;;;;;;5012843;28;20085;-83
2022/05/15 02:57:07;;;;;;;23.20;8.20;;;6.40;99.90;;;;;;5010899;28;20479;-84
2022/05/15 02:59:34;;;;;;;20.45;7.78;;;6.40;99.90;;;;;;5038691;28;20524;-84
2022/05/15 03:02:00;;;;;;;27.98;8.88;;;6.30;99.90;;;;;;5014584;28;20053;-84
2022/05/15 03:04:27;;;;;;;27.73;8.52;;;6.40;99.90;;;;;;5012160;28;20046;-83
2022/05/15 03:06:53;;;;;;;21.17;6.45;;;6.20;99.90;;;;;;5048440;28;20049;-83
2022/05/15 03:09:19;;;;;;;19.92;7.10;;;6.20;99.90;;;;;;5046001;28;20037;-84
2022/05/15 03:11:45;;;;;;;19.67;7.75;;;6.30;99.90;;;;;;5031369;28;20049;-84
2022/05/15 03:14:11;;;;;;;18.48;6.43;;;6.20;99.90;;;;;;5018210;28;20070;-83
2022/05/15 03:16:37;;;;;;;17.92;7.53;;;6.30;99.90;;;;;;5031585;28;20506;-84
2022/05/15 03:19:03;;;;;;;17.65;7.57;;;6.20;99.90;;;;;;5017325;28;20049;-85
2022/05/15 03:21:29;;;;;;;21.67;6.40;;;6.20;99.90;;;;;;5027300;28;20048;-86
2022/05/15 03:24:00;;;;;;;24.15;7.57;;;6.50;99.90;;;;;;5009993;28;20053;-82
2022/05/15 03:26:26;;;;;;;18.88;7.47;;;6.30;99.90;;;;;;4979777;28;20093;-85
2022/05/15 03:28:52;;;;;;;21.33;7.78;;;6.10;99.90;;;;;;5002642;28;20437;-82
2022/05/15 03:31:18;;;;;;;27.30;8.10;;;6.10;99.90;;;;;;4995532;28;20045;-82
2022/05/15 03:33:44;;;;;;;19.88;7.43;;;6.10;99.90;;;;;;5016644;28;20056;-85
2022/05/15 03:36:12;;;;;;;24.63;8.98;;;6.00;99.90;;;;;;5013515;28;20111;-82
2022/05/15 03:38:40;;;;;;;24.38;6.95;;;6.00;99.90;;;;;;5027191;28;20126;-83
2022/05/15 03:41:05;;;;;;;20.83;7.78;;;6.10;99.90;;;;;;5015485;28;20053;-82
2022/05/15 03:43:31;;;;;;;20.45;6.97;;;6.00;99.90;;;;;;5030470;28;20157;-86
2022/05/15 03:45:57;;;;;;;32.45;8.63;;;6.10;99.90;;;;;;5030961;28;20060;-83
2022/05/15 03:48:23;;;;;;;21.92;7.90;;;6.00;99.90;;;;;;4997388;28;20805;-85
2022/05/15 03:50:48;;;;;;;18.33;7.78;;;6.00;99.90;;;;;;5026138;28;20049;-83
2022/05/15 03:53:14;;;;;;;26.30;7.72;;;6.00;99.90;;;;;;5027455;28;20049;-83
2022/05/15 03:55:40;;;;;;;23.17;8.50;;;6.00;99.90;;;;;;5013596;28;20080;-83
2022/05/15 03:58:05;;;;;;;24.42;7.95;;;6.00;99.90;;;;;;5030105;28;20042;-84
2022/05/15 04:00:31;;;;;;;20.30;7.85;;;6.00;99.90;;;;;;5013394;28;20049;-84
2022/05/15 04:02:57;;;;;;;27.73;9.15;;;6.10;99.90;;;;;;5044113;28;20513;-83
2022/05/15 04:05:23;;;;;;;19.15;8.18;;;6.10;99.90;;;;;;5009305;28;20041;-84
2022/05/15 04:07:50;;;;;;;24.05;8.38;;;6.10;99.90;;;;;;5003863;28;20145;-83
2022/05/15 04:10:23;;;;;;;26.00;9.45;;;6.00;99.90;;;;;;5032527;28;20052;-83
2022/05/15 04:12:49;;;;;;;22.25;8.43;;;6.10;99.90;;;;;;5031594;28;20200;-83
2022/05/15 04:15:15;;;;;;;22.48;8.57;;;6.00;99.90;;;;;;5029171;28;20056;-82
2022/05/15 04:17:42;;;;;;;22.52;8.10;;;6.30;99.90;;;;;;5013194;28;20441;-82
2022/05/15 04:20:08;;;;;;;25.23;9.15;;;6.10;99.90;;;;;;5030544;28;20051;-82
2022/05/15 04:22:34;;;;;;;30.35;8.93;;;6.10;99.90;;;;;;5011675;28;20077;-83
2022/05/15 04:25:00;;;;;;;30.75;10.73;;;6.20;99.90;;;;;;5031840;28;20080;-83
2022/05/15 04:27:25;;;;;;;29.50;10.27;;;6.30;99.90;;;;;;5013473;28;20107;-82
2022/05/15 04:29:52;;;;;;;27.15;10.68;;;6.40;99.90;;;;;;5031092;28;20057;-84
2022/05/15 04:32:18;;;;;;;25.00;9.32;;;6.40;99.90;;;;;;5012999;28;20042;-82
2022/05/15 04:34:44;;;;;;;22.88;9.18;;;6.40;99.90;;;;;;5012902;28;20460;-84
2022/05/15 04:37:09;;;;;;;19.63;8.60;;;6.50;99.90;;;;;;5030013;28;20842;-83
2022/05/15 04:39:35;;;;;;;27.38;9.18;;;6.50;99.90;;;;;;4997265;28;20045;-83
2022/05/15 04:42:01;;;;;;;23.58;9.27;;;6.50;99.90;;;;;;5012741;28;20412;-84
2022/05/15 04:44:27;;;;;;;20.30;8.02;;;6.50;99.90;;;;;;5029288;28;20056;-84
2022/05/15 04:46:53;;;;;;;24.60;8.68;;;6.60;99.90;;;;;;5029982;28;20049;-83
2022/05/15 04:49:19;;;;;;;23.23;8.57;;;6.90;99.90;;;;;;5013824;28;20084;-84
2022/05/15 04:51:44;;;;;;;20.10;9.05;;;6.70;99.90;;;;;;5022883;28;20053;-84
2022/05/15 04:54:10;;;;;;;20.13;8.27;;;6.70;99.90;;;;;;5007213;28;20043;-84
2022/05/15 04:56:36;;;;;;;27.25;9.07;;;6.70;99.90;;;;;;5032368;28;20079;-87
2022/05/15 04:59:02;;;;;;;22.75;8.68;;;6.80;99.90;;;;;;5041828;28;20045;-83
2022/05/15 05:01:28;;;;;;;23.88;9.57;;;6.70;99.90;;;;;;5049008;28;20053;-84
2022/05/15 05:03:55;;;;;;;25.80;9.02;;;6.90;99.90;;;;;;5004403;28;20037;-83
2022/05/15 05:06:21;;;;;;;22.23;8.85;;;6.90;99.90;;;;;;5014082;28;20128;-83
2022/05/15 05:08:48;;;;;;;25.17;10.32;;;7.10;99.90;;;;;;5012291;28;20049;-85
2022/05/15 05:11:14;;;;;;;26.80;9.23;;;7.20;99.90;;;;;;5027907;28;20053;-84
2022/05/15 05:13:40;;;;;;;22.58;9.57;;;7.30;99.90;;;;;;4989334;28;20034;-83
2022/05/15 05:16:06;;;;;;;23.98;9.43;;;7.20;99.90;;;;;;5024563;28;20052;-84
2022/05/15 05:18:31;;;;;;;27.88;9.18;;;7.30;99.90;;;;;;5012483;28;20050;-84
2022/05/15 05:20:57;;;;;;;24.35;9.23;;;7.30;99.90;;;;;;5012453;28;20033;-83
2022/05/15 05:23:23;;;;;;;28.38;9.38;;;7.40;99.90;;;;;;4996567;28;20136;-84
2022/05/15 05:25:48;;;;;;;27.52;9.20;;;7.60;99.90;;;;;;5028881;28;20077;-84
2022/05/15 05:28:15;;;;;;;26.95;8.95;;;7.50;99.90;;;;;;5011817;28;20049;-84
2022/05/15 05:30:41;;;;;;;30.90;9.75;;;7.70;99.90;;;;;;5029264;28;20101;-83
2022/05/15 05:33:08;;;;;;;30.80;10.52;;;7.90;99.90;;;;;;5029713;28;20045;-85
2022/05/15 05:35:35;;;;;;;33.85;8.85;;;8.00;99.90;;;;;;5013418;28;20128;-83
2022/05/15 05:38:02;;;;;;;33.00;10.48;;;8.20;99.90;;;;;;5016057;28;20538;-83
2022/05/15 05:40:28;;;;;;;28.75;10.05;;;8.30;99.90;;;;;;5011095;28;20057;-84
2022/05/15 05:42:53;;;;;;;25.92;9.75;;;8.50;99.90;;;;;;5009221;28;20057;-83
2022/05/15 05:45:19;;;;;;;30.35;9.38;;;8.60;99.90;;;;;;5001026;28;20510;-83
2022/05/15 05:47:49;;;;;;;24.27;10.07;;;8.80;99.90;;;;;;4998844;28;20041;-84
2022/05/15 05:50:18;;;;;;;25.25;7.80;;;9.00;99.90;;;;;;5034818;28;20046;-83
2022/05/15 05:52:44;;;;;;;26.63;8.15;;;9.20;99.90;;;;;;5032861;28;20077;-86
2022/05/15 05:55:13;;;;;;;34.33;9.30;;;9.30;99.90;;;;;;5031588;28;20077;-83
2022/05/15 05:57:40;;;;;;;33.25;7.80;;;9.60;99.90;;;;;;5031195;28;20483;-83
2022/05/15 06:00:09;;;;;;;28.48;7.88;;;9.70;99.90;;;;;;5020511;28;20478;-86
2022/05/15 06:02:35;;;;;;;23.60;8.05;;;10.00;99.90;;;;;;5031331;28;20450;-85
2022/05/15 06:05:00;;;;;;;29.10;8.70;;;10.30;99.90;;;;;;5001665;28;20044;-84
2022/05/15 06:07:27;;;;;;;26.88;7.22;;;10.50;99.90;;;;;;5039613;28;20148;-84
2022/05/15 06:09:54;;;;;;;21.45;6.25;;;10.90;99.90;;;;;;5006510;28;20132;-84
2022/05/15 06:12:23;;;;;;;24.45;7.15;;;11.20;99.90;;;;;;5029378;28;20041;-86
2022/05/15 06:14:50;;;;;;;20.38;6.53;;;11.60;99.90;;;;;;5039639;28;20049;-89
2022/05/15 06:17:25;;;;;;;30.33;6.53;;;11.90;99.90;;;;;;5030885;28;20072;-84
2022/05/15 06:19:51;;;;;;;20.27;7.07;;;12.20;99.90;;;;;;5063617;28;20084;-84
2022/05/15 06:22:17;;;;;;;21.58;6.82;;;12.50;99.90;;;;;;5018553;28;20053;-85
2022/05/15 06:24:43;;;;;;;16.10;5.60;;;12.80;99.90;;;;;;5022200;28;20037;-84
2022/05/15 06:27:09;;;;;;;22.42;6.35;;;13.10;99.90;;;;;;5015538;28;20056;-85
2022/05/15 06:29:37;;;;;;;23.55;6.22;;;13.40;99.90;;;;;;4997637;28;20050;-84
2022/05/15 06:32:03;;;;;;;19.38;5.68;;;13.60;99.90;;;;;;5032184;28;20470;-85
2022/05/15 06:34:29;;;;;;;21.85;6.60;;;13.80;99.90;;;;;;5049159;28;20132;-85
2022/05/15 06:36:57;;;;;;;15.68;5.18;;;14.10;99.90;;;;;;4997925;28;20183;-86
2022/05/15 06:39:22;;;;;;;20.73;5.20;;;14.30;99.90;;;;;;4987258;28;20050;-85
2022/05/15 06:41:50;;;;;;;17.00;5.47;;;14.50;99.90;;;;;;5014862;28;20060;-89
2022/05/15 06:44:19;;;;;;;16.95;5.85;;;14.70;99.90;;;;;;5017638;28;20061;-85
2022/05/15 06:46:46;;;;;;;15.65;5.20;;;14.90;99.90;;;;;;4998671;28;20049;-87
2022/05/15 06:49:12;;;;;;;17.63;5.13;;;15.10;99.90;;;;;;5037844;28;20033;-85
2022/05/15 06:51:38;;;;;;;18.88;6.57;;;15.20;99.90;;;;;;4996776;28;20148;-84
2022/05/15 06:54:03;;;;;;;22.50;6.22;;;15.30;99.90;;;;;;5021977;28;20056;-85
2022/05/15 06:59:13;;;;;;;16.70;5.18;;;15.60;99.90;;;;;;5005004;28;20053;-85
2022/05/15 07:01:39;;;;;;;18.65;5.85;;;15.70;99.90;;;;;;5014550;28;20508;-85
2022/05/15 07:04:07;;;;;;;23.23;5.82;;;15.90;99.90;;;;;;5018131;28;20048;-87
2022/05/15 07:06:33;;;;;;;18.58;5.65;;;16.00;99.90;;;;;;5012456;28;20129;-87
2022/05/15 07:08:58;;;;;;;16.20;5.10;;;16.30;99.90;;;;;;5032326;28;20182;-86
2022/05/15 07:11:24;;;;;;;19.25;5.30;;;16.40;99.90;;;;;;5000350;28;20081;-87
2022/05/15 07:13:50;;;;;;;16.50;5.40;;;16.70;99.90;;;;;;4999806;28;20045;-87
2022/05/15 07:16:16;;;;;;;18.00;5.30;;;16.90;99.90;;;;;;5016413;28;20042;-85
2022/05/15 07:18:41;;;;;;;17.20;5.88;;;17.10;99.90;;;;;;4988126;28;20399;-85
2022/05/15 07:21:08;;;;;;;13.77;5.20;;;17.40;99.90;;;;;;4998632;28;20041;-86
2022/05/15 07:23:34;;;;;;;18.38;5.50;;;17.60;99.90;;;;;;5012107;28;20442;-85
2022/05/15 07:26:02;;;;;;;18.38;6.40;;;17.80;99.90;;;;;;5012130;28;20046;-84
2022/05/15 07:28:28;;;;;;;18.83;4.97;;;18.00;99.70;;;;;;5045332;28;20053;-85
2022/05/15 07:30:54;;;;;;;16.55;5.53;;;18.20;96.50;;;;;;5031130;28;20060;-84
2022/05/15 07:33:21;;;;;;;15.65;5.47;;;18.40;94.70;;;;;;5038142;28;20123;-84
2022/05/15 07:35:48;;;;;;;12.40;4.70;;;18.60;92.70;;;;;;5047819;28;20045;-85
2022/05/15 07:38:14;;;;;;;18.17;5.20;;;18.80;92.00;;;;;;5014578;28;20057;-83
2022/05/15 07:40:39;;;;;;;20.90;5.13;;;18.90;90.60;;;;;;5023449;28;20067;-84
2022/05/15 07:43:07;;;;;;;17.17;4.68;;;19.10;89.90;;;;;;5043952;28;20517;-84
2022/05/15 07:45:33;;;;;;;14.27;3.97;;;19.30;86.60;;;;;;4998532;28;20132;-84
2022/05/15 07:47:59;;;;;;;16.85;4.90;;;19.40;84.40;;;;;;5014180;28;20045;-84
2022/05/15 07:50:24;;;;;;;14.80;4.30;;;19.50;81.00;;;;;;5015150;28;20768;-84
2022/05/15 07:52:50;;;;;;;15.75;4.45;;;19.70;80.00;;;;;;4997995;28;20038;-88
2022/05/15 07:55:16;;;;;;;17.77;4.57;;;19.90;76.70;;;;;;4998820;28;20049;-84
2022/05/15 07:57:42;;;;;;;16.38;4.13;;;20.10;75.80;;;;;;5015244;28;20128;-84
2022/05/15 08:00:10;;;;;;;17.05;4.13;;;20.30;75.20;;;;;;5030911;28;20045;-86
2022/05/15 08:02:36;;;;;;;14.50;3.67;;;20.50;72.80;;;;;;5029604;28;20041;-85
2022/05/15 08:08:05;;;;;;;16.17;4.10;;;20.00;67.40;;;;;;5031094;28;20061;-84
2022/05/15 08:10:38;;;;;;;15.45;4.07;;;19.50;68.80;;;;;;5007999;28;20053;-84
2022/05/15 08:13:04;;;;;;;16.35;3.70;;;19.30;67.70;;;;;;5019892;28;20410;-85
2022/05/15 08:15:32;;;;;;;15.65;4.25;;;19.10;68.30;;;;;;5014385;28;20582;-83
2022/05/15 08:23:33;;;;;;;15.38;4.40;;;19.00;68.30;;;;;;5013713;28;20103;-84
2022/05/15 08:23:37;;;;;;;16.45;4.38;;;19.00;68.30;;;;;;5032614;28;20060;-81
2022/05/15 08:26:06;;;;;;;17.33;4.53;;;19.50;66.70;;;;;;5029420;28;20049;-83
2022/05/15 08:28:35;;;;;;;16.35;4.30;;;20.40;63.50;;;;;;5012048;28;20079;-83
2022/05/15 08:31:01;;;;;;;19.25;4.88;;;21.10;61.00;;;;;;4993465;28;20115;-82
2022/05/15 08:33:27;;;;;;;12.90;3.72;;;21.70;58.40;;;;;;5028954;28;20053;-85
2022/05/15 08:35:53;;;;;;;15.05;4.18;;;22.30;56.80;;;;;;5013231;28;20076;-83
2022/05/15 08:38:19;;;;;;;18.58;4.20;;;22.80;55.60;;;;;;5016070;28;20049;-84
2022/05/15 08:41:02;;;;;;;12.43;3.70;;;23.10;53.40;;;;;;5011400;28;20128;-85
2022/05/15 08:43:42;;;;;;;16.65;4.13;;;23.50;52.50;;;;;;5022566;28;20129;-84
2022/05/15 08:46:46;;;;;;;14.93;3.70;;;24.10;51.10;;;;;;5041396;28;20060;-86
2022/05/15 08:49:44;;;;;;;13.43;3.75;;;24.50;48.80;;;;;;5027582;28;20068;-85
2022/05/15 08:52:21;;;;;;;14.98;4.32;;;24.80;47.60;;;;;;4990310;28;20245;-85
2022/05/15 08:55:06;;;;;;;14.40;4.30;;;25.30;47.10;;;;;;5013089;28;20053;-86
2022/05/15 08:57:43;;;;;;;11.63;3.20;;;25.60;45.50;;;;;;5032556;28;20048;-84
2022/05/15 09:00:15;;;;;;;10.75;3.65;;;26.10;45.30;;;;;;5013368;28;20128;-85
2022/05/15 09:02:43;;;;;;;15.93;4.05;;;26.50;44.20;;;;;;5028541;28;20041;-84
2022/05/15 09:05:10;;;;;;;25.52;4.22;;;26.70;42.50;;;;;;5028716;28;20052;-84
2022/05/15 09:08:03;;;;;;;12.32;3.58;;;27.00;41.30;;;;;;4996556;28;20049;-84
2022/05/15 09:10:39;;;;;;;12.32;3.78;;;27.30;40.90;;;;;;4994254;28;20614;-85
2022/05/15 09:13:12;;;;;;;17.10;4.00;;;27.60;40.30;;;;;;5015457;28;20053;-87
2022/05/15 09:16:01;;;;;;;10.10;3.50;;;28.10;39.70;;;;;;5010779;28;20054;-85
2022/05/15 09:18:33;;;;;;;12.50;3.60;;;28.60;39.20;;;;;;4990814;28;20049;-86
2022/05/15 09:21:09;;;;;;;13.27;3.38;;;28.90;37.50;;;;;;5045199;28;20120;-86
2022/05/15 09:23:40;;;;;;;17.55;4.60;;;29.20;36.90;;;;;;5062713;28;20050;-86
2022/05/15 09:26:06;;;;;;;13.93;4.28;;;29.50;36.10;;;;;;5016356;28;20076;-87
2022/05/15 09:28:43;;;;;;;13.23;3.80;;;29.60;35.60;;;;;;5033906;28;20096;-87
2022/05/15 09:31:29;;;;;;;12.60;3.92;;;29.50;34.60;;;;;;5029992;28;20049;-85
2022/05/15 09:34:03;;;;;;;12.23;4.15;;;29.20;35.00;;;;;;5041146;28;20069;-85
2022/05/15 09:36:40;;;;;;;11.40;3.60;;;29.50;35.20;;;;;;5031742;28;20445;-85
2022/05/15 09:39:46;;;;;;;13.27;3.40;;;29.90;34.50;;;;;;5026125;28;20045;-85
2022/05/15 09:45:19;;;;;;;12.40;3.88;;;30.60;32.40;;;;;;5028870;28;20179;-84
2022/05/15 09:48:10;;;;;;;13.27;3.55;;;30.70;30.80;;;;;;5029331;28;20045;-85
2022/05/15 09:50:41;;;;;;;16.00;3.67;;;31.00;32.00;;;;;;5029128;28;20088;-85
2022/05/15 09:53:26;;;;;;;14.13;3.45;;;31.30;31.20;;;;;;5011995;28;20440;-84
2022/05/15 09:56:03;;;;;;;11.45;3.58;;;31.40;32.00;;;;;;5012475;28;20049;-83
2022/05/15 09:58:46;;;;;;;12.95;3.47;;;31.60;30.40;;;;;;4996863;28;20140;-86
2022/05/15 10:01:33;;;;;;;12.60;3.60;;;31.90;29.60;;;;;;5027666;28;20049;-84
2022/05/15 10:04:00;;;;;;;11.07;3.85;;;31.90;29.70;;;;;;5043214;28;20045;-84
2022/05/15 10:06:30;;;;;;;18.27;4.32;;;31.60;29.20;;;;;;5011447;28;20061;-83
2022/05/15 10:09:24;;;;;;;14.25;3.83;;;31.50;29.60;;;;;;5030040;28;20068;-83
2022/05/15 10:11:59;;;;;;;14.50;3.53;;;31.60;28.80;;;;;;5012257;28;20430;-83
2022/05/15 10:14:47;;;;;;;13.45;3.92;;;31.70;29.50;;;;;;5014353;28;20083;-84
2022/05/15 10:17:14;;;;;;;13.93;3.88;;;32.00;29.00;;;;;;5015759;28;20053;-84
2022/05/15 10:20:29;;;;;;;15.70;3.95;;;32.60;29.00;;;;;;5061998;28;20395;-83
2022/05/15 10:23:16;;;;;;;9.40;3.58;;;33.10;29.10;;;;;;5003661;28;20053;-84
2022/05/15 10:25:48;;;;;;;11.50;3.10;;;33.20;28.60;;;;;;5028906;28;20049;-84
2022/05/15 10:28:41;;;;;;;11.75;4.45;;;33.50;28.00;;;;;;5028021;28;20049;-84
2022/05/15 10:31:18;;;;;;;9.90;3.33;;;33.80;27.20;;;;;;5061639;28;20041;-85
2022/05/15 10:33:51;;;;;;;13.13;3.88;;;33.80;26.90;;;;;;5033264;28;20049;-84
2022/05/15 10:36:56;;;;;;;12.25;3.55;;;33.80;26.70;;;;;;5028010;28;20107;-87
2022/05/15 10:39:59;;;;;;;12.77;3.67;;;33.50;25.70;;;;;;5006702;28;20065;-85
2022/05/15 10:42:49;;;;;;;15.02;3.83;;;32.80;26.30;;;;;;5011591;28;20431;-82
2022/05/15 10:45:25;;;;;;;13.23;4.15;;;32.40;26.80;;;;;;5011555;28;20577;-83
2022/05/15 10:48:30;;;;;;;14.02;3.97;;;32.60;26.90;;;;;;5057476;28;20072;-83
2022/05/15 10:51:12;;;;;;;12.07;3.42;;;32.90;27.30;;;;;;5031972;28;20049;-83
2022/05/15 10:59:49;;;;;;;8.98;3.28;;;34.00;26.00;;;;;;5030113;28;20133;-84
2022/05/15 11:02:24;;;;;;;10.00;3.20;;;34.40;26.00;;;;;;5014608;28;20049;-83
2022/05/15 11:05:05;;;;;;;12.10;3.17;;;34.60;24.70;;;;;;5031692;28;20614;-84
2022/05/15 11:08:09;;;;;;;10.77;2.95;;;34.40;24.20;;;;;;5030735;28;20484;-83
2022/05/15 11:10:46;;;;;;;11.95;3.15;;;34.10;25.10;;;;;;5008692;28;20049;-84
2022/05/15 11:13:48;;;;;;;9.82;2.90;;;34.50;24.80;;;;;;5014326;28;20132;-84
2022/05/15 11:16:24;;;;;;;13.68;3.95;;;34.70;25.70;;;;;;5030912;28;20061;-84
2022/05/15 11:19:16;;;;;;;12.00;3.33;;;35.10;25.00;;;;;;5014729;28;20048;-85
2022/05/15 11:22:04;;;;;;;11.63;3.13;;;35.30;24.90;;;;;;5031460;28;20560;-85
2022/05/15 11:24:48;;;;;;;11.85;3.90;;;35.50;24.70;;;;;;5013868;28;20049;-85
2022/05/15 11:27:28;;;;;;;10.93;3.25;;;35.40;23.50;;;;;;5027491;28;20064;-84
2022/05/15 11:29:57;;;;;;;12.95;3.70;;;35.40;23.50;;;;;;5014861;28;20482;-84
2022/05/15 11:32:43;;;;;;;13.32;3.47;;;35.60;24.00;;;;;;5030252;28;20133;-84
2022/05/15 11:35:18;;;;;;;15.10;3.30;;;36.00;24.00;;;;;;5014307;28;20049;-85
2022/05/15 11:37:44;;;;;;;14.32;3.72;;;36.30;23.80;;;;;;5030963;28;20426;-84
2022/05/15 11:40:40;;;;;;;9.30;3.30;;;36.30;23.30;;;;;;5014292;28;20050;-84
2022/05/15 11:43:30;;;;;;;11.13;3.28;;;36.20;23.10;;;;;;4994356;28;20054;-85
2022/05/15 11:46:11;;;;;;;9.20;2.65;;;35.90;24.10;;;;;;4994082;28;20061;-84
2022/05/15 11:48:39;;;;;;;9.38;3.00;;;36.10;23.80;;;;;;4994405;28;20046;-85
2022/05/15 11:51:12;;;;;;;9.98;3.15;;;36.30;23.10;;;;;;4994667;28;20092;-84
2022/05/15 11:53:52;;;;;;;12.98;3.58;;;35.90;22.70;;;;;;5010573;28;20092;-85
2022/05/15 11:56:31;;;;;;;12.60;2.70;;;34.90;23.30;;;;;;5010332;28;20084;-85
2022/05/15 11:59:11;;;;;;;8.35;2.97;;;34.50;23.50;;;;;;4994431;28;20064;-85
2022/05/15 12:01:38;;;;;;;9.95;2.95;;;34.50;23.10;;;;;;4994328;28;20061;-84
2022/05/15 12:04:36;;;;;;;9.88;2.90;;;34.60;23.60;;;;;;4995276;28;20483;-84
2022/05/15 12:07:01;;;;;;;15.32;3.53;;;34.60;24.00;;;;;;5013349;28;20061;-84
2022/05/15 12:09:44;;;;;;;9.13;2.88;;;34.80;23.70;;;;;;5022189;28;20397;-85
2022/05/15 12:12:27;;;;;;;10.23;3.28;;;35.20;23.30;;;;;;5030188;28;20049;-84
2022/05/15 12:15:13;;;;;;;12.73;3.28;;;35.50;22.80;;;;;;5030244;28;20406;-85
2022/05/15 12:17:43;;;;;;;12.25;3.30;;;35.90;22.60;;;;;;5029945;28;20053;-85
2022/05/15 12:20:17;;;;;;;9.73;3.00;;;36.40;22.20;;;;;;5012666;28;20049;-85
2022/05/15 12:22:54;;;;;;;9.88;3.05;;;37.00;22.40;;;;;;5060855;28;20116;-85
2022/05/15 12:25:29;;;;;;;11.82;3.85;;;37.30;21.90;;;;;;5013064;28;20092;-84
2022/05/15 12:30:47;;;;;;;9.35;3.30;;;37.70;21.00;;;;;;5034690;28;20057;-85
2022/05/15 12:33:19;;;;;;;8.88;2.78;;;37.80;21.40;;;;;;5013335;28;20056;-85
2022/05/15 12:35:45;;;;;;;12.70;3.72;;;37.60;20.90;;;;;;5030035;28;20053;-85
2022/05/15 12:38:21;;;;;;;11.32;3.22;;;37.60;21.00;;;;;;5013198;28;20526;-84
2022/05/15 12:41:12;;;;;;;11.40;3.03;;;37.30;21.00;;;;;;5029686;28;20052;-84
2022/05/15 12:43:49;;;;;;;8.40;3.03;;;37.30;21.00;;;;;;5015080;28;20099;-84
2022/05/15 12:46:37;;;;;;;11.43;2.90;;;36.80;20.80;;;;;;4993429;28;20050;-84
2022/05/15 12:49:05;;;;;;;9.65;3.72;;;36.90;21.20;;;;;;5009603;28;20058;-84
2022/05/15 12:51:37;;;;;;;10.88;3.22;;;37.10;20.70;;;;;;4992889;28;20496;-85
2022/05/15 12:54:19;;;;;;;9.43;3.33;;;37.20;20.80;;;;;;5012943;28;20037;-85
2022/05/15 12:56:45;;;;;;;9.63;3.47;;;37.30;20.70;;;;;;5012352;28;20045;-85
2022/05/15 12:59:18;;;;;;;12.77;3.20;;;37.00;20.60;;;;;;4996629;28;20094;-86
2022/05/15 13:01:45;;;;;;;10.50;3.00;;;37.10;21.00;;;;;;5029605;28;20107;-84
2022/05/15 13:04:18;;;;;;;9.90;2.75;;;37.00;20.80;;;;;;5046834;28;20053;-84
2022/05/15 13:06:53;;;;;;;8.70;2.97;;;37.20;20.80;;;;;;5013086;28;20049;-84
2022/05/15 13:09:22;;;;;;;9.18;2.55;;;37.50;20.80;;;;;;5045554;28;20064;-86
2022/05/15 13:12:01;;;;;;;7.93;3.08;;;37.70;20.40;;;;;;5029179;28;20057;-83
2022/05/15 13:14:47;;;;;;;9.48;3.40;;;38.00;20.20;;;;;;4992765;28;20168;-85
2022/05/15 13:17:24;;;;;;;10.50;2.95;;;38.00;20.50;;;;;;5009506;28;20439;-84
2022/05/15 13:19:52;;;;;;;10.38;3.42;;;37.90;20.50;;;;;;5009277;28;20104;-83
2022/05/15 13:22:27;;;;;;;8.18;2.80;;;37.90;20.20;;;;;;5023287;28;20125;-84
2022/05/15 13:25:01;;;;;;;8.45;2.78;;;37.60;20.30;;;;;;5028112;28;20041;-83
2022/05/15 13:27:27;;;;;;;9.32;2.97;;;37.50;20.60;;;;;;5028731;28;20049;-84